createdAt,value
2023-04-20T00:01:57.450Z,4.70
2023-04-20T00:04:24.245Z,5.53
2023-04-20T00:06:50.951Z,5.40
2023-04-20T00:09:17.884Z,5.40
2023-04-20T00:11:46.101Z,5.68
2023-04-20T00:14:12.795Z,5.65
2023-04-20T00:16:39.547Z,5.40
2023-04-20T00:19:06.285Z,5.57
2023-04-20T00:21:32.978Z,5.32
2023-04-20T00:23:59.672Z,5.90
2023-04-20T00:26:26.382Z,5.07
2023-04-20T00:28:54.446Z,5.47
2023-04-20T00:31:21.300Z,5.32
2023-04-20T00:33:48.075Z,5.50
2023-04-20T00:36:14.763Z,5.60
2023-04-20T00:38:41.528Z,5.10
2023-04-20T00:41:08.226Z,5.28
2023-04-20T00:43:34.906Z,4.60
2023-04-20T00:46:03.087Z,5.47
2023-04-20T00:48:29.826Z,4.97
2023-04-20T00:50:56.519Z,5.22
2023-04-20T00:53:23.297Z,5.38
2023-04-20T00:55:50.589Z,5.25
2023-04-20T00:58:17.274Z,5.28
2023-04-20T01:00:44.016Z,5.20
2023-04-20T01:03:12.205Z,5.03
2023-04-20T01:05:38.982Z,5.43
2023-04-20T01:08:05.692Z,5.55
2023-04-20T01:10:35.125Z,5.55
2023-04-20T01:13:01.805Z,5.38
2023-04-20T01:15:28.578Z,5.38
2023-04-20T01:17:55.367Z,5.30
2023-04-20T01:20:23.493Z,5.60
2023-04-20T01:22:51.712Z,5.15
2023-04-20T01:25:18.407Z,5.25
2023-04-20T01:27:45.083Z,5.35
2023-04-20T01:30:12.214Z,5.22
2023-04-20T01:32:39.011Z,5.00
2023-04-20T01:35:07.268Z,5.82
2023-04-20T01:37:34.003Z,5.75
2023-04-20T01:40:02.177Z,5.60
2023-04-20T01:42:28.949Z,5.30
2023-04-20T01:44:55.739Z,5.93
2023-04-20T01:47:22.453Z,5.57
2023-04-20T01:49:49.192Z,5.47
2023-04-20T01:52:15.964Z,5.35
2023-04-20T01:54:42.643Z,5.72
2023-04-20T01:57:10.776Z,5.40
2023-04-20T01:59:37.590Z,5.95
2023-04-20T02:02:04.409Z,5.60
2023-04-20T02:04:31.186Z,5.80
2023-04-20T02:06:57.908Z,5.75
2023-04-20T02:09:24.660Z,5.95
2023-04-20T02:11:51.362Z,5.50
2023-04-20T02:14:19.496Z,5.45
2023-04-20T02:16:46.180Z,5.15
2023-04-20T02:19:12.860Z,6.47
2023-04-20T02:21:39.594Z,5.68
2023-04-20T02:24:06.897Z,5.70
2023-04-20T02:26:33.590Z,5.72
2023-04-20T02:29:00.347Z,5.80
2023-04-20T02:31:28.476Z,5.70
2023-04-20T02:33:55.237Z,5.75
2023-04-20T02:36:22.002Z,5.90
2023-04-20T02:38:48.701Z,6.22
2023-04-20T02:41:15.410Z,6.22
2023-04-20T02:43:42.107Z,5.63
2023-04-20T02:46:08.834Z,6.28
2023-04-20T02:48:36.949Z,6.40
2023-04-20T02:51:03.846Z,6.43
2023-04-20T02:53:30.511Z,6.22
2023-04-20T02:55:57.219Z,6.07
2023-04-20T02:58:24.062Z,5.97
2023-04-20T03:00:50.757Z,6.00
2023-04-20T03:03:17.748Z,5.85
2023-04-20T03:05:46.153Z,6.78
2023-04-20T03:08:12.839Z,6.40
2023-04-20T03:10:39.558Z,6.05
2023-04-20T03:13:06.341Z,5.95
2023-04-20T03:15:33.027Z,5.60
2023-04-20T03:17:59.967Z,4.57
2023-04-20T03:20:26.784Z,4.85
2023-04-20T03:22:54.918Z,4.00
2023-04-20T03:25:21.828Z,3.70
2023-04-20T03:27:48.537Z,4.05
2023-04-20T03:30:15.433Z,3.17
2023-04-20T03:32:42.194Z,3.63
2023-04-20T03:35:09.545Z,4.22
2023-04-20T03:37:36.621Z,3.78
2023-04-20T03:40:05.670Z,4.15
2023-04-20T03:42:32.381Z,3.90
2023-04-20T03:45:00.616Z,3.97
2023-04-20T03:47:27.328Z,5.00
2023-04-20T03:49:54.090Z,4.05
2023-04-20T03:52:20.805Z,3.70
2023-04-20T03:54:47.496Z,5.10
2023-04-20T03:57:15.686Z,4.45
2023-04-20T03:59:42.398Z,3.88
2023-04-20T04:02:09.122Z,3.90
2023-04-20T04:04:36.199Z,4.28
2023-04-20T04:07:02.921Z,4.97
2023-04-20T04:09:29.617Z,3.83
2023-04-20T04:11:56.746Z,4.30
2023-04-20T04:14:24.874Z,5.20
2023-04-20T04:16:51.576Z,4.57
2023-04-20T04:19:18.476Z,4.28
2023-04-20T04:21:45.432Z,4.57
2023-04-20T04:24:12.156Z,5.05
2023-04-20T04:26:39.026Z,3.97
2023-04-20T04:29:05.819Z,4.72
2023-04-20T04:31:33.860Z,4.15
2023-04-20T04:34:00.642Z,4.20
2023-04-20T04:36:27.321Z,5.57
2023-04-20T04:38:54.032Z,5.68
2023-04-20T04:41:20.821Z,6.03
2023-04-20T04:43:47.561Z,7.25
2023-04-20T04:46:14.297Z,6.45
2023-04-20T04:48:42.460Z,5.95
2023-04-20T04:51:09.220Z,6.10
2023-04-20T04:53:35.971Z,6.47
2023-04-20T04:56:02.726Z,6.13
2023-04-20T04:58:29.396Z,5.55
2023-04-20T05:00:56.136Z,4.75
2023-04-20T05:03:23.023Z,4.53
2023-04-20T05:05:51.149Z,4.47
2023-04-20T05:08:17.831Z,4.72
2023-04-20T05:10:44.554Z,4.97
2023-04-20T05:13:11.256Z,3.97
2023-04-20T05:15:37.931Z,5.07
2023-04-20T05:18:04.810Z,5.38
2023-04-20T05:20:31.597Z,4.68
2023-04-20T05:22:59.636Z,4.95
2023-04-20T05:25:26.394Z,4.53
2023-04-20T05:27:53.062Z,5.53
2023-04-20T05:30:21.846Z,5.28
2023-04-20T05:32:51.944Z,4.50
2023-04-20T05:35:19.430Z,4.97
2023-04-20T05:37:46.208Z,5.28
2023-04-20T05:40:14.316Z,4.15
2023-04-20T05:42:40.989Z,3.78
2023-04-20T05:45:09.103Z,5.53
2023-04-20T05:47:35.913Z,4.32
2023-04-20T05:50:02.602Z,4.35
2023-04-20T05:52:29.309Z,4.00
2023-04-20T05:54:56.052Z,3.88
2023-04-20T05:57:24.285Z,3.85
2023-04-20T05:59:51.046Z,3.35
2023-04-20T06:02:17.820Z,3.78
2023-04-20T06:04:44.751Z,3.53
2023-04-20T06:07:11.637Z,4.05
2023-04-20T06:09:38.371Z,3.38
2023-04-20T06:12:05.353Z,3.75
2023-04-20T06:14:33.430Z,3.80
2023-04-20T06:17:00.164Z,3.50
2023-04-20T06:19:26.898Z,4.13
2023-04-20T06:21:53.642Z,3.95
2023-04-20T06:24:20.361Z,4.20
2023-04-20T06:26:47.100Z,3.63
2023-04-20T06:29:13.808Z,3.47
2023-04-20T06:31:42.010Z,3.65
2023-04-20T06:34:08.737Z,3.70
2023-04-20T06:36:35.459Z,3.47
2023-04-20T06:39:02.296Z,3.47
2023-04-20T06:41:28.962Z,3.45
2023-04-20T06:43:55.653Z,3.80
2023-04-20T06:46:22.421Z,3.72
2023-04-20T06:48:50.528Z,3.80
2023-04-20T06:51:17.251Z,3.13
2023-04-20T06:53:43.949Z,3.22
2023-04-20T06:56:10.637Z,3.25
2023-04-20T06:58:37.431Z,3.45
2023-04-20T07:01:04.820Z,3.40
2023-04-20T07:03:31.687Z,3.78
2023-04-20T07:06:19.272Z,3.28
2023-04-20T07:08:46.009Z,3.83
2023-04-20T07:11:12.721Z,3.20
2023-04-20T07:13:39.444Z,2.92
2023-04-20T07:16:06.828Z,2.45
2023-04-20T07:18:35.288Z,2.60
2023-04-20T07:21:02.483Z,2.83
2023-04-20T07:23:30.568Z,2.72
2023-04-20T07:25:57.341Z,2.80
2023-04-20T07:28:24.044Z,2.50
2023-04-20T07:30:50.741Z,2.60
2023-04-20T07:33:17.436Z,2.50
2023-04-20T07:35:44.180Z,2.80
2023-04-20T07:38:10.898Z,2.60
2023-04-20T07:40:39.089Z,2.58
2023-04-20T07:43:05.904Z,2.67
2023-04-20T07:45:32.710Z,2.83
2023-04-20T07:47:59.468Z,2.33
2023-04-20T07:50:26.370Z,2.58
2023-04-20T07:52:53.356Z,2.30
2023-04-20T07:55:20.218Z,2.08
2023-04-20T07:57:48.384Z,2.53
2023-04-20T08:00:15.844Z,2.17
2023-04-20T08:02:42.684Z,3.00
2023-04-20T08:05:10.027Z,2.58
2023-04-20T08:07:36.990Z,2.13
2023-04-20T08:10:04.146Z,8.63
2023-04-20T08:12:30.865Z,3.53
2023-04-20T08:14:59.044Z,2.60
2023-04-20T08:17:26.311Z,2.70
2023-04-20T08:19:53.215Z,2.30
2023-04-20T08:22:19.886Z,2.13
2023-04-20T08:24:46.582Z,2.08
2023-04-20T08:27:13.333Z,2.35
2023-04-20T08:29:40.045Z,2.25
2023-04-20T08:32:08.153Z,2.00
2023-04-20T08:34:35.083Z,2.40
2023-04-20T08:37:02.131Z,2.38
2023-04-20T08:39:28.847Z,2.28
2023-04-20T08:41:55.769Z,2.30
2023-04-20T08:44:22.530Z,2.53
2023-04-20T08:46:49.331Z,2.42
2023-04-20T08:49:17.892Z,2.53
2023-04-20T08:51:45.255Z,2.25
2023-04-20T08:54:12.002Z,2.78
2023-04-20T08:56:39.672Z,2.47
2023-04-20T08:59:06.486Z,2.20
2023-04-20T09:01:35.998Z,2.40
2023-04-20T09:04:03.947Z,2.55
2023-04-20T09:06:32.317Z,2.80
2023-04-20T09:08:58.987Z,2.17
2023-04-20T09:11:26.532Z,2.00
2023-04-20T09:14:00.139Z,2.42
2023-04-20T09:16:26.926Z,2.45
2023-04-20T09:18:53.639Z,2.28
2023-04-20T09:21:20.337Z,1.98
2023-04-20T09:23:57.497Z,2.47
2023-04-20T09:26:24.411Z,2.10
2023-04-20T09:28:51.082Z,2.03
2023-04-20T09:31:18.245Z,1.90
2023-04-20T09:33:44.940Z,2.00
2023-04-20T09:36:11.680Z,1.92
2023-04-20T09:38:38.457Z,1.90
2023-04-20T09:41:06.632Z,2.00
2023-04-20T09:43:33.312Z,2.17
2023-04-20T09:46:00.120Z,2.05
2023-04-20T09:48:26.878Z,2.17
2023-04-20T09:50:53.561Z,2.20
2023-04-20T09:53:20.322Z,2.45
2023-04-20T09:55:47.167Z,2.28
2023-04-20T09:58:15.405Z,2.38
2023-04-20T10:00:42.405Z,2.10
2023-04-20T10:03:09.218Z,2.28
2023-04-20T10:05:36.297Z,1.77
2023-04-20T10:08:03.041Z,2.40
2023-04-20T10:10:29.714Z,1.92
2023-04-20T10:12:57.726Z,1.67
2023-04-20T10:15:36.445Z,2.03
2023-04-20T10:18:03.242Z,1.90
2023-04-20T10:20:30.036Z,1.80
2023-04-20T10:23:07.340Z,1.77
2023-04-20T10:25:34.092Z,2.17
2023-04-20T10:28:02.093Z,1.73
2023-04-20T10:30:30.348Z,2.20
2023-04-20T10:33:04.648Z,1.80
2023-04-20T10:35:42.108Z,1.98
2023-04-20T10:38:09.572Z,2.05
2023-04-20T10:40:36.416Z,2.17
2023-04-20T10:43:03.163Z,1.70
2023-04-20T10:45:37.493Z,2.13
2023-04-20T10:48:08.597Z,2.13
2023-04-20T10:50:35.310Z,1.73
2023-04-20T10:53:02.006Z,1.55
2023-04-20T10:55:29.116Z,1.70
2023-04-20T10:57:55.828Z,1.60
2023-04-20T11:00:24.106Z,1.75
2023-04-20T11:02:52.933Z,1.80
2023-04-20T11:05:20.187Z,1.90
2023-04-20T11:07:48.493Z,1.70
2023-04-20T11:10:15.213Z,1.90
2023-04-20T11:12:41.908Z,1.67
2023-04-20T11:15:09.764Z,1.80
2023-04-20T11:17:37.077Z,1.63
2023-04-20T11:20:09.888Z,1.40
2023-04-20T11:22:36.873Z,1.67
2023-04-20T11:25:04.406Z,1.83
2023-04-20T11:27:31.094Z,1.60
2023-04-20T11:29:58.007Z,1.83
2023-04-20T11:32:24.871Z,1.45
2023-04-20T11:35:06.040Z,1.55
2023-04-20T11:37:45.633Z,1.80
2023-04-20T11:40:12.757Z,1.50
2023-04-20T11:42:39.464Z,1.30
2023-04-20T11:45:07.350Z,2.00
2023-04-20T11:47:34.118Z,1.75
2023-04-20T11:50:00.849Z,1.67
2023-04-20T11:52:27.564Z,2.03
2023-04-20T11:54:55.732Z,2.00
2023-04-20T11:57:22.420Z,1.90
2023-04-20T11:59:49.151Z,2.00
2023-04-20T12:02:16.372Z,2.10
2023-04-20T12:04:43.328Z,1.98
2023-04-20T12:07:10.271Z,2.08
2023-04-20T12:09:36.982Z,2.00
2023-04-20T12:12:05.478Z,2.05
2023-04-20T12:14:32.207Z,2.15
2023-04-20T12:16:58.959Z,1.90
2023-04-20T12:19:25.661Z,2.00
2023-04-20T12:21:52.383Z,2.03
2023-04-20T12:24:19.100Z,6.13
2023-04-20T12:26:45.776Z,1.70
2023-04-20T12:29:13.796Z,1.63
2023-04-20T12:31:40.622Z,1.67
2023-04-20T12:34:07.345Z,1.52
2023-04-20T12:36:34.051Z,1.50
2023-04-20T12:39:00.788Z,1.40
2023-04-20T12:41:27.452Z,1.58
2023-04-20T12:43:54.125Z,1.45
2023-04-20T12:46:22.228Z,1.50
2023-04-20T12:48:49.005Z,1.65
2023-04-20T12:51:15.708Z,1.67
2023-04-20T12:53:42.410Z,1.42
2023-04-20T12:56:09.095Z,1.50
2023-04-20T12:58:35.810Z,1.40
2023-04-20T13:01:03.074Z,1.40
2023-04-20T13:03:31.265Z,1.27
2023-04-20T13:05:59.088Z,1.48
2023-04-20T13:08:26.064Z,1.80
2023-04-20T13:10:52.731Z,2.00
2023-04-20T13:13:19.479Z,1.40
2023-04-20T13:15:46.173Z,1.52
2023-04-20T13:18:12.850Z,1.55
2023-04-20T13:20:40.938Z,2.25
2023-04-20T13:23:07.659Z,2.15
2023-04-20T13:25:34.380Z,1.95
2023-04-20T13:28:01.273Z,2.20
2023-04-20T13:30:27.990Z,1.83
2023-04-20T13:32:54.688Z,1.83
2023-04-20T13:35:21.418Z,1.67
2023-04-20T13:37:49.540Z,1.60
2023-04-20T13:40:16.228Z,1.90
2023-04-20T13:42:42.918Z,2.05
2023-04-20T13:45:10.591Z,1.40
2023-04-20T13:47:37.502Z,1.50
2023-04-20T13:50:04.844Z,1.45
2023-04-20T13:52:31.613Z,1.50
2023-04-20T13:54:59.701Z,1.40
2023-04-20T13:57:26.432Z,1.17
2023-04-20T13:59:53.165Z,1.38
2023-04-20T14:02:19.925Z,1.50
2023-04-20T14:04:46.655Z,1.20
2023-04-20T14:07:13.497Z,1.30
2023-04-20T14:09:40.290Z,1.20
2023-04-20T14:12:08.366Z,1.20
2023-04-20T14:14:35.223Z,1.10
2023-04-20T14:17:01.999Z,1.45
2023-04-20T14:19:28.709Z,1.60
2023-04-20T14:21:55.420Z,1.42
2023-04-20T14:24:22.106Z,1.50
2023-04-20T14:26:50.463Z,1.50
2023-04-20T14:29:18.582Z,1.20
2023-04-20T14:31:45.356Z,1.23
2023-04-20T14:34:12.117Z,1.20
2023-04-20T14:36:38.870Z,1.60
2023-04-20T14:39:05.632Z,1.30
2023-04-20T14:41:36.309Z,1.55
2023-04-20T14:44:03.087Z,1.30
2023-04-20T14:46:31.201Z,1.45
2023-04-20T14:48:57.900Z,1.40
2023-04-20T14:51:24.631Z,1.50
2023-04-20T14:53:51.327Z,1.33
2023-04-20T14:56:17.999Z,1.58
2023-04-20T14:58:44.704Z,1.30
2023-04-20T15:01:11.513Z,1.15
2023-04-20T15:03:39.940Z,1.20
2023-04-20T15:06:07.505Z,1.20
2023-04-20T15:08:34.241Z,1.17
2023-04-20T15:11:01.015Z,1.25
2023-04-20T15:13:27.671Z,1.20
2023-04-20T15:15:55.419Z,1.40
2023-04-20T15:18:22.351Z,1.60
2023-04-20T15:20:50.909Z,1.40
2023-04-20T15:23:17.680Z,1.30
2023-04-20T15:25:44.446Z,1.50
2023-04-20T15:28:11.269Z,1.40
2023-04-20T15:30:38.006Z,1.20
2023-04-20T15:33:05.630Z,1.15
2023-04-20T15:35:32.764Z,1.50
2023-04-20T15:38:00.882Z,1.45
2023-04-20T15:40:27.632Z,1.20
2023-04-20T15:42:54.391Z,1.17
2023-04-20T15:45:21.181Z,1.30
2023-04-20T15:47:48.088Z,1.15
2023-04-20T15:50:14.903Z,1.30
2023-04-20T15:52:41.617Z,1.63
2023-04-20T15:55:10.500Z,1.05
2023-04-20T15:57:37.246Z,1.50
2023-04-20T16:00:04.484Z,1.30
2023-04-20T16:02:31.464Z,1.40
2023-04-20T16:04:58.396Z,1.33
2023-04-20T16:07:25.275Z,1.55
2023-04-20T16:09:51.979Z,1.40
2023-04-20T16:12:20.112Z,1.40
2023-04-20T16:14:46.826Z,1.45
2023-04-20T16:17:13.580Z,1.30
2023-04-20T16:19:40.333Z,2.20
2023-04-20T16:22:07.029Z,1.30
2023-04-20T16:24:33.725Z,1.60
2023-04-20T16:27:00.497Z,1.05
2023-04-20T16:29:28.630Z,1.00
2023-04-20T16:31:55.501Z,0.93
2023-04-20T16:34:22.363Z,1.02
2023-04-20T16:36:49.058Z,1.25
2023-04-20T16:39:15.760Z,1.25
2023-04-20T16:41:42.479Z,1.10
2023-04-20T16:44:09.186Z,1.17
2023-04-20T16:46:37.298Z,1.33
2023-04-20T16:49:04.027Z,1.05
2023-04-20T16:51:30.856Z,0.93
2023-04-20T16:53:57.513Z,1.55
2023-04-20T16:56:24.262Z,0.90
2023-04-20T16:58:50.954Z,1.30
2023-04-20T17:01:17.726Z,1.08
2023-04-20T17:03:46.024Z,4.50
2023-04-20T17:06:12.833Z,1.52
2023-04-20T17:08:39.593Z,1.30
2023-04-20T17:11:06.459Z,1.58
2023-04-20T17:13:33.151Z,1.40
2023-04-20T17:15:59.962Z,1.50
2023-04-20T17:18:26.705Z,1.48
2023-04-20T17:20:55.169Z,1.30
2023-04-20T17:23:21.976Z,1.27
2023-04-20T17:25:48.732Z,1.10
2023-04-20T17:28:15.431Z,1.27
2023-04-20T17:30:42.169Z,1.40
2023-04-20T17:33:09.262Z,1.25
2023-04-20T17:35:38.014Z,0.70
2023-04-20T17:38:06.289Z,1.20
2023-04-20T17:40:33.057Z,1.13
2023-04-20T17:42:59.785Z,1.40
2023-04-20T17:45:26.477Z,1.15
2023-04-20T17:47:53.800Z,1.50
2023-04-20T17:50:20.634Z,1.40
2023-04-20T17:52:47.306Z,1.65
2023-04-20T17:55:15.337Z,1.80
2023-04-20T17:57:42.063Z,1.65
2023-04-20T18:00:10.848Z,1.80
2023-04-20T18:02:37.718Z,1.67
2023-04-20T18:05:05.303Z,1.88
2023-04-20T18:07:32.005Z,6.68
2023-04-20T18:09:58.746Z,2.70
2023-04-20T18:12:26.908Z,2.75
2023-04-20T18:14:53.612Z,2.47
2023-04-20T18:17:20.548Z,2.40
2023-04-20T18:19:47.290Z,2.28
2023-04-20T18:22:14.103Z,2.67
2023-04-20T18:24:40.923Z,2.95
2023-04-20T18:27:07.589Z,2.47
2023-04-20T18:29:35.676Z,2.65
2023-04-20T18:32:02.500Z,2.20
2023-04-20T18:34:29.283Z,2.25
2023-04-20T18:36:55.972Z,2.83
2023-04-20T18:39:22.901Z,2.60
2023-04-20T18:41:49.571Z,2.58
2023-04-20T18:44:16.507Z,2.53
2023-04-20T18:46:44.863Z,2.80
2023-04-20T18:49:11.628Z,3.30
2023-04-20T18:51:38.487Z,2.67
2023-04-20T18:54:05.458Z,2.28
2023-04-20T18:56:35.371Z,2.20
2023-04-20T18:59:02.066Z,3.38
2023-04-20T19:01:28.885Z,3.92
2023-04-20T19:03:57.294Z,3.42
2023-04-20T19:06:24.027Z,3.30
2023-04-20T19:08:50.770Z,2.58
2023-04-20T19:11:17.480Z,2.88
2023-04-20T19:13:44.250Z,3.35
2023-04-20T19:16:11.195Z,4.13
2023-04-20T19:18:37.999Z,6.15
2023-04-20T19:21:06.157Z,7.00
2023-04-20T19:23:33.094Z,8.25
2023-04-20T19:25:59.825Z,4.60
2023-04-20T19:28:26.526Z,3.72
2023-04-20T19:30:53.335Z,3.13
2023-04-20T19:33:20.595Z,3.05
2023-04-20T19:35:47.329Z,2.80
2023-04-20T19:38:15.437Z,2.63
2023-04-20T19:40:42.095Z,2.30
2023-04-20T19:43:08.761Z,2.30
2023-04-20T19:45:35.541Z,2.22
2023-04-20T19:48:02.321Z,2.17
2023-04-20T19:50:29.057Z,2.60
2023-04-20T19:52:55.832Z,2.10
2023-04-20T19:55:23.924Z,2.65
2023-04-20T19:57:50.639Z,2.40
2023-04-20T20:00:17.403Z,2.70
2023-04-20T20:02:44.220Z,2.67
2023-04-20T20:05:11.002Z,2.85
2023-04-20T20:07:37.845Z,2.78
2023-04-20T20:10:04.912Z,3.50
2023-04-20T20:12:32.952Z,3.05
2023-04-20T20:14:59.817Z,2.90
2023-04-20T20:17:26.644Z,3.17
2023-04-20T20:19:54.390Z,2.45
2023-04-20T20:22:22.342Z,2.88
2023-04-20T20:24:49.147Z,2.22
2023-04-20T20:27:15.855Z,2.60
2023-04-20T20:29:44.186Z,2.90
2023-04-20T20:32:10.883Z,2.38
2023-04-20T20:34:37.575Z,2.40
2023-04-20T20:37:04.342Z,2.58
2023-04-20T20:39:31.101Z,2.50
2023-04-20T20:41:57.861Z,2.58
2023-04-20T20:44:24.654Z,2.70
2023-04-20T20:46:52.741Z,2.80
2023-04-20T20:49:19.704Z,2.40
2023-04-20T20:51:46.652Z,2.53
2023-04-20T20:54:13.357Z,3.03
2023-04-20T20:56:40.149Z,3.00
2023-04-20T20:59:06.900Z,3.40
2023-04-20T21:01:33.663Z,3.30
2023-04-20T21:04:02.124Z,3.60
2023-04-20T21:06:29.228Z,2.95
2023-04-20T21:08:55.933Z,3.17
2023-04-20T21:11:22.690Z,3.33
2023-04-20T21:13:49.440Z,3.03
2023-04-20T21:16:16.263Z,3.22
2023-04-20T21:18:42.971Z,3.10
2023-04-20T21:21:12.429Z,2.47
2023-04-20T21:23:39.201Z,2.58
2023-04-20T21:26:05.863Z,2.70
2023-04-20T21:28:32.542Z,2.97
2023-04-20T21:30:59.226Z,2.88
2023-04-20T21:33:26.036Z,2.95
2023-04-20T21:35:52.849Z,2.85
2023-04-20T21:38:20.952Z,3.28
2023-04-20T21:40:47.617Z,3.22
2023-04-20T21:43:14.389Z,2.92
2023-04-20T21:45:41.138Z,3.03
2023-04-20T21:48:07.797Z,3.20
2023-04-20T21:50:36.597Z,3.00
2023-04-20T21:53:03.319Z,3.03
2023-04-20T21:55:31.494Z,3.20
2023-04-20T21:57:58.268Z,3.15
2023-04-20T22:00:25.050Z,2.90
2023-04-20T22:02:52.002Z,2.90
2023-04-20T22:05:18.917Z,3.47
2023-04-20T22:07:45.616Z,2.97
2023-04-20T22:10:12.335Z,3.33
2023-04-20T22:12:41.503Z,2.88
2023-04-20T22:15:09.491Z,2.90
2023-04-20T22:17:36.172Z,3.13
2023-04-20T22:20:03.024Z,2.35
2023-04-20T22:22:29.729Z,2.92
2023-04-20T22:24:56.428Z,3.20
2023-04-20T22:27:23.183Z,3.30
2023-04-20T22:29:51.286Z,3.15
2023-04-20T22:32:17.984Z,3.53
2023-04-20T22:34:44.750Z,3.08
2023-04-20T22:37:11.457Z,3.10
2023-04-20T22:39:38.162Z,3.20
2023-04-20T22:42:05.082Z,3.20
2023-04-20T22:44:31.750Z,2.97
2023-04-20T22:46:59.808Z,3.08
2023-04-20T22:49:26.501Z,3.20
2023-04-20T22:51:53.197Z,2.90
2023-04-20T22:54:19.878Z,2.95
2023-04-20T22:56:46.608Z,3.33
2023-04-20T22:59:13.315Z,2.65
2023-04-20T23:01:40.099Z,3.50
2023-04-20T23:04:08.306Z,3.35
2023-04-20T23:06:35.179Z,3.22
2023-04-20T23:09:01.847Z,3.17
2023-04-20T23:11:28.606Z,3.38
2023-04-20T23:13:55.279Z,3.00
2023-04-20T23:16:22.062Z,2.95
2023-04-20T23:18:48.827Z,3.50
2023-04-20T23:21:16.925Z,3.20
2023-04-20T23:23:43.602Z,3.03
2023-04-20T23:26:10.288Z,3.20
2023-04-20T23:28:36.993Z,2.88
2023-04-20T23:31:03.806Z,2.85
2023-04-20T23:33:30.571Z,2.88
2023-04-20T23:35:58.226Z,3.47
2023-04-20T23:38:26.308Z,3.03
2023-04-20T23:40:53.026Z,2.97
2023-04-20T23:43:19.718Z,3.22
2023-04-20T23:45:46.465Z,2.95
2023-04-20T23:48:13.266Z,3.00
2023-04-20T23:50:39.934Z,3.30
2023-04-20T23:53:06.594Z,3.47
2023-04-20T23:55:34.704Z,2.88
2023-04-20T23:58:01.453Z,3.03
